sensor_id;sensor_type;location;lat;lon;timestamp;pressure;altitude;pressure_sealevel;temperature;humidity
39309;BME280;26019;47.510;19.122;2022-12-05T00:04:44;100845.69;;;4.46;100.00
39309;BME280;26019;47.510;19.122;2022-12-05T00:14:46;100855.31;;;4.57;100.00
39309;BME280;26019;47.510;19.122;2022-12-05T00:24:47;100845.06;;;4.55;100.00
39309;BME280;26019;47.510;19.122;2022-12-05T00:34:50;100836.75;;;4.33;100.00
39309;BME280;26019;47.510;19.122;2022-12-05T00:44:53;100848.19;;;4.45;100.00
39309;BME280;26019;47.510;19.122;2022-12-05T00:54:55;100847.31;;;4.44;100.00
39309;BME280;26019;47.510;19.122;2022-12-05T01:04:58;100845.63;;;4.45;100.00
39309;BME280;26019;47.510;19.122;2022-12-05T01:15:00;100824.59;;;4.25;100.00
39309;BME280;26019;47.510;19.122;2022-12-05T01:25:06;100833.06;;;4.22;100.00
39309;BME280;26019;47.510;19.122;2022-12-05T01:35:08;100820.25;;;4.22;100.00
39309;BME280;26019;47.510;19.122;2022-12-05T01:45:18;100807.75;;;4.02;100.00
39309;BME280;26019;47.510;19.122;2022-12-05T01:55:23;100828.22;;;4.02;100.00
39309;BME280;26019;47.510;19.122;2022-12-05T02:05:30;100824.69;;;3.97;100.00
39309;BME280;26019;47.510;19.122;2022-12-05T02:15:51;100820.25;;;3.92;100.00
39309;BME280;26019;47.510;19.122;2022-12-05T02:26:36;100813.53;;;3.95;100.00
39309;BME280;26019;47.510;19.122;2022-12-05T02:46:55;100839.06;;;3.94;100.00
39309;BME280;26019;47.510;19.122;2022-12-05T02:57:02;100831.16;;;3.86;100.00
39309;BME280;26019;47.510;19.122;2022-12-05T03:07:10;100845.06;;;3.94;100.00
39309;BME280;26019;47.510;19.122;2022-12-05T03:17:17;100853.44;;;3.90;100.00
39309;BME280;26019;47.510;19.122;2022-12-05T03:37:56;100855.28;;;3.94;100.00
39309;BME280;26019;47.510;19.122;2022-12-05T03:48:06;100860.44;;;3.96;100.00
39309;BME280;26019;47.510;19.122;2022-12-05T03:58:35;100850.94;;;3.92;100.00
39309;BME280;26019;47.510;19.122;2022-12-05T04:08:43;100828.81;;;3.94;100.00
39309;BME280;26019;47.510;19.122;2022-12-05T04:19:04;100845.06;;;3.94;100.00
39309;BME280;26019;47.510;19.122;2022-12-05T04:29:14;100847.63;;;3.96;100.00
39309;BME280;26019;47.510;19.122;2022-12-05T04:39:43;100847.72;;;3.99;100.00
39309;BME280;26019;47.510;19.122;2022-12-05T04:49:46;100828.00;;;3.95;100.00
39309;BME280;26019;47.510;19.122;2022-12-05T04:59:54;100832.47;;;4.02;100.00
39309;BME280;26019;47.510;19.122;2022-12-05T05:09:56;100825.66;;;4.02;100.00
39309;BME280;26019;47.510;19.122;2022-12-05T05:19:58;100822.03;;;3.94;100.00
39309;BME280;26019;47.510;19.122;2022-12-05T05:30:23;100826.16;;;3.91;100.00
39309;BME280;26019;47.510;19.122;2022-12-05T05:40:26;100855.38;;;3.97;100.00
39309;BME280;26019;47.510;19.122;2022-12-05T05:50:28;100846.78;;;3.95;100.00
39309;BME280;26019;47.510;19.122;2022-12-05T06:00:30;100859.00;;;4.06;100.00
39309;BME280;26019;47.510;19.122;2022-12-05T06:10:32;100857.34;;;4.08;100.00
39309;BME280;26019;47.510;19.122;2022-12-05T06:20:36;100876.09;;;4.07;100.00
39309;BME280;26019;47.510;19.122;2022-12-05T06:30:40;100884.81;;;4.13;100.00
39309;BME280;26019;47.510;19.122;2022-12-05T06:40:43;100886.00;;;4.25;100.00
39309;BME280;26019;47.510;19.122;2022-12-05T06:50:52;100883.09;;;4.43;100.00
39309;BME280;26019;47.510;19.122;2022-12-05T07:00:56;100877.06;;;4.41;100.00
39309;BME280;26019;47.510;19.122;2022-12-05T07:11:16;100901.81;;;4.40;100.00
39309;BME280;26019;47.510;19.122;2022-12-05T07:21:18;100908.97;;;4.52;100.00
39309;BME280;26019;47.510;19.122;2022-12-05T07:31:22;100911.94;;;4.68;100.00
39309;BME280;26019;47.510;19.122;2022-12-05T07:41:26;100903.50;;;4.72;100.00
39309;BME280;26019;47.510;19.122;2022-12-05T07:51:28;100920.03;;;4.83;100.00
39309;BME280;26019;47.510;19.122;2022-12-05T08:01:30;100934.59;;;4.84;100.00
39309;BME280;26019;47.510;19.122;2022-12-05T08:11:34;100940.63;;;5.18;100.00
39309;BME280;26019;47.510;19.122;2022-12-05T08:21:38;100942.56;;;4.95;100.00
39309;BME280;26019;47.510;19.122;2022-12-05T08:31:47;100946.19;;;5.03;100.00
39309;BME280;26019;47.510;19.122;2022-12-05T08:41:50;100955.91;;;5.15;100.00
39309;BME280;26019;47.510;19.122;2022-12-05T08:51:52;100930.63;;;5.28;100.00
39309;BME280;26019;47.510;19.122;2022-12-05T09:01:56;100929.88;;;5.33;100.00
39309;BME280;26019;47.510;19.122;2022-12-05T09:11:58;100952.72;;;5.58;100.00
39309;BME280;26019;47.510;19.122;2022-12-05T09:22:00;100934.94;;;6.02;100.00
39309;BME280;26019;47.510;19.122;2022-12-05T09:32:05;100926.66;;;6.14;100.00
39309;BME280;26019;47.510;19.122;2022-12-05T09:42:36;100931.06;;;6.20;100.00
39309;BME280;26019;47.510;19.122;2022-12-05T10:44:32;100858.22;;;7.57;100.00
39309;BME280;26019;47.510;19.122;2022-12-05T10:54:42;100846.81;;;8.03;100.00
39309;BME280;26019;47.510;19.122;2022-12-05T11:04:48;100850.72;;;7.17;100.00
39309;BME280;26019;47.510;19.122;2022-12-05T11:35:30;100818.50;;;6.38;100.00
39309;BME280;26019;47.510;19.122;2022-12-05T12:17:43;100794.38;;;6.76;100.00
39309;BME280;26019;47.510;19.122;2022-12-05T13:19:40;100759.69;;;6.51;100.00
39309;BME280;26019;47.510;19.122;2022-12-05T13:30:04;100758.13;;;6.59;100.00
39309;BME280;26019;47.510;19.122;2022-12-05T13:40:36;100745.47;;;6.71;100.00
39309;BME280;26019;47.510;19.122;2022-12-05T13:51:07;100763.19;;;6.56;100.00
39309;BME280;26019;47.510;19.122;2022-12-05T14:11:28;100765.78;;;6.56;100.00
39309;BME280;26019;47.510;19.122;2022-12-05T14:21:59;100749.34;;;6.48;100.00
39309;BME280;26019;47.510;19.122;2022-12-05T14:42:40;100764.94;;;6.57;100.00
39309;BME280;26019;47.510;19.122;2022-12-05T14:52:42;100736.41;;;6.41;100.00
39309;BME280;26019;47.510;19.122;2022-12-05T15:02:48;100745.00;;;6.43;100.00
39309;BME280;26019;47.510;19.122;2022-12-05T15:12:57;100732.88;;;6.36;100.00
39309;BME280;26019;47.510;19.122;2022-12-05T15:23:01;100731.16;;;6.35;100.00
39309;BME280;26019;47.510;19.122;2022-12-05T15:33:11;100743.38;;;6.49;100.00
39309;BME280;26019;47.510;19.122;2022-12-05T15:43:31;100711.56;;;6.40;100.00
39309;BME280;26019;47.510;19.122;2022-12-05T15:53:42;100705.47;;;6.35;100.00
39309;BME280;26019;47.510;19.122;2022-12-05T16:04:05;100694.25;;;6.30;100.00
39309;BME280;26019;47.510;19.122;2022-12-05T16:14:12;100700.34;;;6.35;100.00
39309;BME280;26019;47.510;19.122;2022-12-05T16:24:46;100723.50;;;6.38;100.00
39309;BME280;26019;47.510;19.122;2022-12-05T16:34:51;100707.91;;;6.27;100.00
39309;BME280;26019;47.510;19.122;2022-12-05T16:44:59;100703.63;;;6.26;100.00
39309;BME280;26019;47.510;19.122;2022-12-05T16:55:09;100713.00;;;6.24;100.00
39309;BME280;26019;47.510;19.122;2022-12-05T17:05:12;100704.38;;;6.21;100.00
39309;BME280;26019;47.510;19.122;2022-12-05T17:15:19;100711.56;;;6.39;100.00
39309;BME280;26019;47.510;19.122;2022-12-05T17:25:33;100690.06;;;6.35;100.00
39309;BME280;26019;47.510;19.122;2022-12-05T17:35:38;100659.09;;;6.23;100.00
39309;BME280;26019;47.510;19.122;2022-12-05T17:45:42;100662.53;;;6.25;100.00
39309;BME280;26019;47.510;19.122;2022-12-05T17:55:44;100669.13;;;6.10;100.00
39309;BME280;26019;47.510;19.122;2022-12-05T18:05:56;100667.31;;;6.05;100.00
39309;BME280;26019;47.510;19.122;2022-12-05T18:15:58;100666.63;;;6.13;100.00
39309;BME280;26019;47.510;19.122;2022-12-05T18:26:01;100657.25;;;6.16;100.00
39309;BME280;26019;47.510;19.122;2022-12-05T18:36:08;100656.47;;;6.20;100.00
39309;BME280;26019;47.510;19.122;2022-12-05T18:46:10;100650.44;;;6.18;100.00
39309;BME280;26019;47.510;19.122;2022-12-05T18:56:14;100651.09;;;6.07;100.00
39309;BME280;26019;47.510;19.122;2022-12-05T19:06:27;100642.50;;;6.05;100.00
39309;BME280;26019;47.510;19.122;2022-12-05T19:16:33;100643.41;;;6.07;100.00
39309;BME280;26019;47.510;19.122;2022-12-05T19:26:36;100637.44;;;6.08;100.00
39309;BME280;26019;47.510;19.122;2022-12-05T19:36:43;100633.25;;;6.13;100.00
39309;BME280;26019;47.510;19.122;2022-12-05T19:46:48;100622.97;;;6.12;100.00
39309;BME280;26019;47.510;19.122;2022-12-05T19:56:52;100610.66;;;5.94;100.00
39309;BME280;26019;47.510;19.122;2022-12-05T20:07:01;100612.56;;;6.04;100.00
39309;BME280;26019;47.510;19.122;2022-12-05T20:17:04;100602.91;;;5.91;100.00
39309;BME280;26019;47.510;19.122;2022-12-05T20:27:11;100600.41;;;5.94;100.00
39309;BME280;26019;47.510;19.122;2022-12-05T20:37:12;100597.78;;;5.91;100.00
39309;BME280;26019;47.510;19.122;2022-12-05T20:47:16;100583.22;;;5.90;100.00
39309;BME280;26019;47.510;19.122;2022-12-05T20:57:19;100581.56;;;5.93;100.00
39309;BME280;26019;47.510;19.122;2022-12-05T21:07:23;100573.25;;;6.05;100.00
39309;BME280;26019;47.510;19.122;2022-12-05T21:17:26;100546.38;;;5.86;100.00
39309;BME280;26019;47.510;19.122;2022-12-05T21:27:28;100558.50;;;5.95;100.00
39309;BME280;26019;47.510;19.122;2022-12-05T21:37:34;100539.50;;;5.85;100.00
39309;BME280;26019;47.510;19.122;2022-12-05T21:47:38;100549.88;;;5.90;100.00
39309;BME280;26019;47.510;19.122;2022-12-05T21:57:39;100549.88;;;5.91;100.00
39309;BME280;26019;47.510;19.122;2022-12-05T22:07:45;100548.03;;;5.82;100.00
39309;BME280;26019;47.510;19.122;2022-12-05T22:17:47;100528.31;;;5.80;100.00
39309;BME280;26019;47.510;19.122;2022-12-05T22:27:50;100534.31;;;5.79;100.00
39309;BME280;26019;47.510;19.122;2022-12-05T22:37:52;100514.47;;;5.70;100.00
39309;BME280;26019;47.510;19.122;2022-12-05T22:47:56;100507.78;;;5.78;100.00
39309;BME280;26019;47.510;19.122;2022-12-05T22:57:57;100501.81;;;5.78;100.00
39309;BME280;26019;47.510;19.122;2022-12-05T23:08:01;100481.25;;;5.76;100.00
39309;BME280;26019;47.510;19.122;2022-12-05T23:18:03;100470.75;;;5.61;100.00
39309;BME280;26019;47.510;19.122;2022-12-05T23:28:11;100477.59;;;5.62;100.00
39309;BME280;26019;47.510;19.122;2022-12-05T23:38:12;100464.91;;;5.70;100.00
39309;BME280;26019;47.510;19.122;2022-12-05T23:48:14;100446.78;;;5.60;100.00
39309;BME280;26019;47.510;19.122;2022-12-05T23:58:16;100420.09;;;5.49;100.00
